Time;durP1;ratioP1;P1;durP2;ratioP2;P2;SDS_P1;SDS_P2;PMS_P1;PMS_P2;Temp;Humidity;BMP_temperature;BMP_pressure;BME280_temperature;BME280_humidity;BME280_pressure;Samples;Min_cycle;Max_cycle;Signal;HPM_P1;HPM_P2
2021/04/09 07:01:35;;;;;;;;;;;;;;;4.08;68.80;100605.38;4566730;23;20023;-66
2021/04/09 07:04:04;;;;;;;;;;;;;;;4.16;69.50;100603.16;4882704;29;19927;-68
2021/04/09 07:06:32;;;;;;;;;;;;;;;4.32;69.19;100602.13;4882459;29;20400;-67
2021/04/09 07:08:59;;;;;;;;;;;;;;;4.50;68.46;100605.34;4865916;29;19928;-67
2021/04/09 07:11:28;;;;;;;;;;;;;;;4.61;68.78;100604.06;4882467;29;19982;-67
2021/04/09 07:13:56;;;;;;;;;;;;;;;4.63;67.78;100599.97;4882414;29;19936;-66
2021/04/09 07:16:24;;;;;;;;;;;;;;;4.63;67.89;100602.50;4882592;29;20493;-67
2021/04/09 07:18:54;;;;;;;;;;;;;;;4.70;67.68;100594.31;4882310;29;19951;-66
2021/04/09 07:21:25;;;;;;;;;;;;;;;4.86;67.29;100598.28;4882305;29;19927;-67
2021/04/09 07:23:56;;;;;;;;;;;;;;;5.08;67.58;100604.16;4882634;29;19964;-67
2021/04/09 07:26:26;;;;;;;;;;;;;;;5.20;66.66;100604.59;4882195;29;19928;-68
2021/04/09 07:28:55;;;;;;;;;;;;;;;5.23;66.02;100604.69;4882147;29;19928;-68
2021/04/09 07:31:27;;;;;;;;;;;;;;;5.26;65.63;100602.28;4882138;29;19937;-67
2021/04/09 07:33:56;;;;;;;;;;;;;;;5.29;65.43;100599.88;4882102;29;19952;-68
2021/04/09 07:36:36;;;;;;;;;;;;;;;5.36;64.95;100596.72;4882084;29;20128;-68
2021/04/09 07:39:03;;;;;;;;;;;;;;;5.39;64.44;100601.03;4881956;29;19939;-66
2021/04/09 07:41:31;;;;;;;;;;;;;;;5.51;64.63;100593.00;4881936;29;19928;-68
2021/04/09 07:44:13;;;;;;;;;;;;;;;5.64;64.47;100585.03;4881924;29;19935;-68
2021/04/09 07:46:41;;;;;;;;;;;;;;;5.72;63.46;100583.59;4881778;29;19928;-69
2021/04/09 07:49:10;;;;;;;;;;;;;;;5.77;63.44;100582.06;4881773;29;19967;-67
2021/04/09 07:51:38;;;;;;;;;;;;;;;5.93;63.88;100586.84;4881638;29;19939;-68
2021/04/09 07:54:08;;;;;;;;;;;;;;;6.12;63.42;100585.78;4881702;29;19963;-64
2021/04/09 07:56:41;;;;;;;;;;;;;;;6.30;63.53;100576.19;4881629;29;20391;-67
2021/04/09 07:59:09;;;;;;;;;;;;;;;6.45;62.75;100579.22;4881662;29;19927;-67
2021/04/09 08:01:46;;;;;;;;;;;;;;;6.58;62.46;100579.59;4881475;29;19932;-68
2021/04/09 08:04:16;;;;;;;;;;;;;;;6.62;61.81;100566.19;4881831;29;19960;-66
2021/04/09 08:06:43;;;;;;;;;;;;;;;6.68;61.62;100563.84;4880457;29;19928;-67
2021/04/09 08:09:11;;;;;;;;;;;;;;;6.93;61.93;100564.53;4881579;29;19928;-69
2021/04/09 08:11:39;;;;;;;;;;;;;;;7.16;61.73;100553.34;4881441;29;19928;-69
2021/04/09 08:14:08;;;;;;;;;;;;;;;7.38;60.99;100550.53;4864736;29;20018;-69
2021/04/09 08:16:37;;;;;;;;;;;;;;;7.58;59.93;100544.31;4881308;29;19932;-68
2021/04/09 08:19:08;;;;;;;;;;;;;;;7.75;59.28;100537.94;4881197;29;20026;-68
2021/04/09 08:21:38;;;;;;;;;;;;;;;7.92;58.22;100536.66;4864564;29;19995;-69
2021/04/09 08:24:07;;;;;;;;;;;;;;;7.93;55.67;100537.53;4881236;29;19938;-69
2021/04/09 08:26:36;;;;;;;;;;;;;;;8.11;56.37;100533.72;4880999;29;19928;-70
2021/04/09 08:29:06;;;;;;;;;;;;;;;8.32;54.75;100532.53;4881089;29;19935;-67
2021/04/09 08:31:34;;;;;;;;;;;;;;;8.32;52.24;100533.38;4881089;29;19932;-67
2021/04/09 08:34:02;;;;;;;;;;;;;;;8.30;53.32;100529.09;4880961;29;19935;-67
2021/04/09 08:36:30;;;;;;;;;;;;;;;8.42;52.99;100525.09;4880876;29;19927;-66
2021/04/09 08:39:00;;;;;;;;;;;;;;;8.57;53.06;100522.03;4881216;29;19935;-67
2021/04/09 08:41:28;;;;;;;;;;;;;;;8.60;52.37;100520.41;4880887;29;19967;-68
2021/04/09 08:43:56;;;;;;;;;;;;;;;8.70;50.92;100534.19;4880817;29;20006;-67
2021/04/09 08:46:24;;;;;;;;;;;;;;;8.59;50.84;100521.22;4880702;29;19927;-67
2021/04/09 08:48:53;;;;;;;;;;;;;;;8.61;50.81;100521.28;4880798;29;20398;-67
2021/04/09 08:51:22;;;;;;;;;;;;;;;8.66;50.53;100514.59;4880936;29;20041;-67
2021/04/09 08:53:53;;;;;;;;;;;;;;;8.82;50.21;100510.66;4880816;29;20389;-68
2021/04/09 08:56:23;;;;;;;;;;;;;;;8.92;50.46;100497.28;4864615;29;20281;-67
2021/04/09 08:58:52;;;;;;;;;;;;;;;9.07;50.44;100508.59;4880727;29;19976;-69
2021/04/09 09:01:20;;;;;;;;;;;;;;;9.11;50.15;100494.25;4880494;29;19960;-70
2021/04/09 09:03:48;;;;;;;;;;;;;;;9.12;49.18;100501.91;4880564;29;19928;-66
2021/04/09 09:06:15;;;;;;;;;;;;;;;9.32;49.38;100494.63;4880772;29;20282;-69
2021/04/09 09:08:46;;;;;;;;;;;;;;;9.48;49.29;100498.31;4880163;29;19927;-69
2021/04/09 09:11:14;;;;;;;;;;;;;;;9.44;49.22;100490.59;4880830;29;19978;-67
2021/04/09 09:13:42;;;;;;;;;;;;;;;9.57;48.99;100486.56;4863817;29;20027;-70
2021/04/09 09:16:13;;;;;;;;;;;;;;;9.49;47.87;100482.16;4880215;29;19927;-69
2021/04/09 09:18:44;;;;;;;;;;;;;;;9.40;48.04;100478.66;4880609;29;19984;-67
2021/04/09 09:21:21;;;;;;;;;;;;;;;9.57;48.05;100476.38;4880847;29;19927;-70
2021/04/09 09:23:50;;;;;;;;;;;;;;;9.56;46.56;100471.25;4880355;29;19934;-67
2021/04/09 09:26:18;;;;;;;;;;;;;;;9.62;46.63;100473.91;4880250;29;19932;-67
2021/04/09 09:28:48;;;;;;;;;;;;;;;9.76;47.24;100459.66;4880159;29;20374;-71
2021/04/09 09:31:19;;;;;;;;;;;;;;;9.74;45.59;100474.09;4880092;29;19931;-69
2021/04/09 09:33:48;;;;;;;;;;;;;;;9.57;47.10;100462.78;4880253;29;19984;-67
2021/04/09 09:36:17;;;;;;;;;;;;;;;9.58;47.52;100455.13;4880177;29;20044;-70
2021/04/09 09:38:49;;;;;;;;;;;;;;;9.70;48.62;100446.81;4863673;29;19935;-68
2021/04/09 09:41:20;;;;;;;;;;;;;;;9.90;49.44;100451.41;4880241;29;19959;-71
2021/04/09 09:43:48;;;;;;;;;;;;;;;9.92;47.98;100448.84;4880251;29;20035;-67
2021/04/09 09:46:40;;;;;;;;;;;;;;;9.93;47.88;100460.78;4880079;29;20038;-69
2021/04/09 09:49:08;;;;;;;;;;;;;;;9.69;47.39;100446.00;4879872;29;19928;-68
2021/04/09 09:51:37;;;;;;;;;;;;;;;9.77;48.79;100433.31;4880007;29;19935;-69
2021/04/09 09:54:05;;;;;;;;;;;;;;;10.08;49.77;100448.22;4880577;29;20038;-68
2021/04/09 09:56:33;;;;;;;;;;;;;;;10.17;48.41;100428.00;4880251;29;19963;-71
2021/04/09 09:59:00;;;;;;;;;;;;;;;10.18;49.31;100427.13;4880039;29;20425;-68
2021/04/09 10:01:29;;;;;;;;;;;;;;;10.25;48.40;100423.81;4879854;29;20026;-72
2021/04/09 10:03:56;;;;;;;;;;;;;;;10.43;47.85;100418.09;4880170;29;20378;-69
2021/04/09 10:06:27;;;;;;;;;;;;;;;10.68;48.01;100418.38;4879923;29;19967;-68
2021/04/09 10:09:00;;;;;;;;;;;;;;;10.88;47.88;100412.63;4880213;29;19928;-68
2021/04/09 10:11:30;;;;;;;;;;;;;;;10.91;46.10;100413.50;4879868;29;19928;-68
2021/04/09 10:14:00;;;;;;;;;;;;;;;10.93;45.77;100410.97;4879955;29;19932;-68
2021/04/09 10:16:28;;;;;;;;;;;;;;;10.94;46.40;100405.03;4879848;29;19984;-73
2021/04/09 10:18:58;;;;;;;;;;;;;;;10.96;45.88;100400.78;4879758;29;19935;-70
2021/04/09 10:21:26;;;;;;;;;;;;;;;11.19;46.91;100399.28;4863300;29;19927;-72
2021/04/09 10:24:04;;;;;;;;;;;;;;;11.26;45.05;100390.81;4879746;29;20378;-71
2021/04/09 10:26:33;;;;;;;;;;;;;;;11.32;45.49;100386.63;4879719;29;19927;-65
2021/04/09 10:29:00;;;;;;;;;;;;;;;11.28;45.02;100373.78;4880760;29;20404;-69
2021/04/09 10:31:28;;;;;;;;;;;;;;;11.34;45.51;100368.75;4883161;29;20414;-69
2021/04/09 10:33:58;;;;;;;;;;;;;;;11.46;44.72;100368.81;4883143;29;20358;-69
2021/04/09 10:36:27;;;;;;;;;;;;;;;11.63;44.04;100374.03;4883133;29;19928;-71
2021/04/09 10:38:55;;;;;;;;;;;;;;;11.73;44.00;100371.59;4883108;29;19928;-72
2021/04/09 10:41:29;;;;;;;;;;;;;;;11.87;43.89;100367.41;4883046;29;19928;-72
2021/04/09 10:43:58;;;;;;;;;;;;;;;12.05;43.09;100367.47;4882954;29;19938;-70
2021/04/09 10:46:28;;;;;;;;;;;;;;;12.07;41.73;100360.66;4883761;29;19938;-67
2021/04/09 10:48:58;;;;;;;;;;;;;;;11.97;40.85;100353.78;4882790;29;19935;-68
2021/04/09 10:51:28;;;;;;;;;;;;;;;12.04;40.96;100347.84;4882922;29;20369;-68
2021/04/09 10:54:10;;;;;;;;;;;;;;;12.22;41.00;100346.19;4866514;29;19971;-71
2021/04/09 10:56:39;;;;;;;;;;;;;;;12.29;39.66;100345.38;4882772;29;19932;-72
2021/04/09 10:59:08;;;;;;;;;;;;;;;12.24;40.01;100352.22;4883243;29;20274;-68
2021/04/09 11:01:36;;;;;;;;;;;;;;;12.26;40.33;100335.16;4882274;29;19928;-70
2021/04/09 11:04:05;;;;;;;;;;;;;;;12.33;39.32;100342.00;4882663;29;19928;-67
2021/04/09 11:06:33;;;;;;;;;;;;;;;12.31;39.02;100338.56;4882578;29;19928;-72
2021/04/09 11:09:03;;;;;;;;;;;;;;;12.44;39.39;100324.94;4882521;29;20412;-72
2021/04/09 11:11:31;;;;;;;;;;;;;;;12.37;38.65;100318.97;4882486;29;19980;-67
2021/04/09 11:14:02;;;;;;;;;;;;;;;12.48;38.79;100316.41;4882414;29;19935;-71
2021/04/09 11:16:29;;;;;;;;;;;;;;;12.48;38.35;100308.72;4882561;29;20413;-67
2021/04/09 11:18:58;;;;;;;;;;;;;;;12.49;38.19;100301.06;4882316;29;19931;-70
2021/04/09 11:21:29;;;;;;;;;;;;;;;12.62;38.58;100312.19;4882652;29;20383;-71
2021/04/09 11:23:58;;;;;;;;;;;;;;;12.72;38.41;100312.19;4882299;29;20381;-68
2021/04/09 11:26:26;;;;;;;;;;;;;;;12.76;39.08;100297.69;4882263;29;19928;-68
2021/04/09 11:28:54;;;;;;;;;;;;;;;12.83;38.83;100298.53;4882095;29;19976;-68
2021/04/09 11:31:24;;;;;;;;;;;;;;;12.93;38.95;100293.41;4882357;29;20386;-70
2021/04/09 11:34:02;;;;;;;;;;;;;;;13.18;39.28;100287.41;4882104;29;19963;-67
2021/04/09 11:36:37;;;;;;;;;;;;;;;13.31;37.38;100281.44;4882345;29;19990;-69
2021/04/09 11:39:06;;;;;;;;;;;;;;;13.12;37.73;100302.81;4882064;29;19967;-72
2021/04/09 11:41:35;;;;;;;;;;;;;;;12.89;37.59;100285.69;4881737;29;20037;-70
2021/04/09 11:44:06;;;;;;;;;;;;;;;12.88;38.21;100291.69;4881904;29;20387;-71
2021/04/09 11:46:36;;;;;;;;;;;;;;;13.04;38.90;100273.75;4881890;29;20342;-70
2021/04/09 11:49:04;;;;;;;;;;;;;;;13.15;38.06;100272.03;4881740;29;19934;-70
2021/04/09 11:51:34;;;;;;;;;;;;;;;13.10;37.86;100268.63;4881710;29;20294;-70
2021/04/09 11:54:03;;;;;;;;;;;;;;;13.13;37.83;100252.41;4881787;29;20426;-70
2021/04/09 11:56:33;;;;;;;;;;;;;;;13.25;37.67;100266.03;4881688;29;19984;-68
2021/04/09 11:59:08;;;;;;;;;;;;;;;13.32;37.85;100260.03;4881601;29;19927;-70
2021/04/09 12:01:37;;;;;;;;;;;;;;;13.59;37.72;100250.56;4864900;29;19927;-69
2021/04/09 12:04:05;;;;;;;;;;;;;;;13.48;36.88;100245.47;4881560;29;20398;-68
2021/04/09 12:06:36;;;;;;;;;;;;;;;13.37;37.10;100235.25;4881512;29;19932;-70
2021/04/09 12:09:05;;;;;;;;;;;;;;;13.41;36.89;100238.66;4881389;29;19983;-72
2021/04/09 12:11:33;;;;;;;;;;;;;;;13.49;37.62;100238.63;4881320;29;19928;-70
2021/04/09 12:14:01;;;;;;;;;;;;;;;13.69;37.76;100224.00;4881275;29;19928;-71
2021/04/09 12:16:29;;;;;;;;;;;;;;;13.75;36.80;100213.75;4864528;29;19934;-71
2021/04/09 12:18:58;;;;;;;;;;;;;;;13.55;35.68;100228.34;4881223;29;19951;-73
2021/04/09 12:21:26;;;;;;;;;;;;;;;13.59;36.23;100219.78;4881170;29;20450;-70
2021/04/09 12:23:54;;;;;;;;;;;;;;;13.67;36.06;100220.59;4881126;29;19983;-71
2021/04/09 12:26:22;;;;;;;;;;;;;;;13.78;35.51;100218.81;4864369;29;19928;-72
2021/04/09 12:28:50;;;;;;;;;;;;;;;13.69;35.41;100203.50;4881047;29;19927;-70
2021/04/09 12:31:22;;;;;;;;;;;;;;;13.65;34.61;100204.38;4881041;29;19935;-72
2021/04/09 12:33:50;;;;;;;;;;;;;;;13.60;35.25;100193.28;4880960;29;20389;-71
2021/04/09 12:36:20;;;;;;;;;;;;;;;13.73;35.36;100194.91;4880961;29;20411;-70
2021/04/09 12:38:48;;;;;;;;;;;;;;;13.79;34.86;100182.94;4880942;29;19932;-70
2021/04/09 12:41:15;;;;;;;;;;;;;;;13.83;34.74;100191.44;4880944;29;19928;-73
2021/04/09 12:43:43;;;;;;;;;;;;;;;13.99;35.18;100177.66;4880824;29;20294;-73
2021/04/09 12:46:11;;;;;;;;;;;;;;;14.14;35.02;100180.13;4880761;29;19935;-71
2021/04/09 12:48:39;;;;;;;;;;;;;;;14.31;34.46;100186.00;4880701;29;20390;-68
2021/04/09 12:51:06;;;;;;;;;;;;;;;14.26;33.44;100180.03;4880283;29;19928;-70
2021/04/09 12:53:35;;;;;;;;;;;;;;;14.17;33.25;100177.53;4880850;29;19984;-73
2021/04/09 12:56:03;;;;;;;;;;;;;;;14.16;32.94;100160.41;4880667;29;19928;-73
2021/04/09 12:58:31;;;;;;;;;;;;;;;14.31;34.18;100154.34;4880597;29;19991;-68
2021/04/09 13:00:58;;;;;;;;;;;;;;;14.46;34.10;100155.06;4880548;29;19934;-73
2021/04/09 13:03:26;;;;;;;;;;;;;;;14.37;33.77;100144.03;4880580;29;20022;-69
2021/04/09 13:05:54;;;;;;;;;;;;;;;14.36;33.80;100132.91;4880479;29;20366;-73
2021/04/09 13:08:22;;;;;;;;;;;;;;;14.57;34.15;100137.84;4880326;29;19927;-70
2021/04/09 13:10:55;;;;;;;;;;;;;;;14.26;32.90;100140.66;4880568;29;19928;-70
2021/04/09 13:13:24;;;;;;;;;;;;;;;14.13;32.88;100145.06;4880372;29;20408;-69
2021/04/09 13:15:53;;;;;;;;;;;;;;;14.30;33.83;100138.06;4880619;29;20374;-70
2021/04/09 13:18:21;;;;;;;;;;;;;;;14.32;33.34;100141.50;4880362;29;19928;-70
2021/04/09 13:20:49;;;;;;;;;;;;;;;14.37;32.98;100124.31;4880297;29;20283;-71
2021/04/09 13:23:33;;;;;;;;;;;;;;;14.49;32.75;100119.06;4880354;29;19928;-71
2021/04/09 13:26:02;;;;;;;;;;;;;;;14.50;33.17;100105.38;4880217;29;19928;-74
2021/04/09 13:28:50;;;;;;;;;;;;;;;14.36;32.68;100107.22;4805219;29;20311;-72
2021/04/09 13:31:18;;;;;;;;;;;;;;;14.34;32.65;100102.97;4805055;29;19940;-72
2021/04/09 13:33:46;;;;;;;;;;;;;;;14.35;32.67;100094.41;4804839;29;20296;-74
2021/04/09 13:36:14;;;;;;;;;;;;;;;14.39;32.66;100080.66;4804803;29;19944;-73
2021/04/09 13:38:42;;;;;;;;;;;;;;;14.49;32.52;100075.41;4804776;29;19929;-71
2021/04/09 13:41:11;;;;;;;;;;;;;;;14.57;33.67;100081.31;4804835;29;19929;-71
2021/04/09 13:43:39;;;;;;;;;;;;;;;14.66;33.72;100068.38;4804761;29;19933;-71
2021/04/09 13:46:07;;;;;;;;;;;;;;;14.66;33.32;100073.50;4804709;29;20032;-71
2021/04/09 13:48:37;;;;;;;;;;;;;;;14.68;32.50;100066.63;4804641;29;20456;-71
2021/04/09 13:51:05;;;;;;;;;;;;;;;14.58;32.13;100064.19;4789776;29;19929;-72
2021/04/09 13:53:36;;;;;;;;;;;;;;;14.61;33.00;100057.28;4804651;29;19929;-71
2021/04/09 13:56:04;;;;;;;;;;;;;;;14.64;33.27;100062.41;4804926;29;19929;-71
2021/04/09 13:58:33;;;;;;;;;;;;;;;14.64;33.15;100057.25;4804615;29;19986;-71
2021/04/09 14:01:01;;;;;;;;;;;;;;;14.52;32.56;100057.41;4804415;29;19929;-71
2021/04/09 14:03:28;;;;;;;;;;;;;;;14.56;33.11;100053.94;4806414;29;19956;-69
2021/04/09 14:05:57;;;;;;;;;;;;;;;14.62;32.74;100043.59;4845518;29;19928;-71
2021/04/09 14:08:25;;;;;;;;;;;;;;;14.69;33.31;100037.50;4883510;29;20023;-71
2021/04/09 14:10:53;;;;;;;;;;;;;;;14.82;33.59;100037.38;4883839;29;19928;-70
2021/04/09 14:13:22;;;;;;;;;;;;;;;14.82;33.69;100030.50;4883713;29;19928;-73
2021/04/09 14:15:51;;;;;;;;;;;;;;;14.85;33.13;100035.63;4883507;29;19970;-70
2021/04/09 14:18:19;;;;;;;;;;;;;;;14.78;32.84;100018.56;4883370;29;19928;-73
2021/04/09 14:20:47;;;;;;;;;;;;;;;14.72;32.52;100018.66;4883433;29;20010;-74
2021/04/09 14:23:14;;;;;;;;;;;;;;;14.74;33.08;100016.91;4883316;29;20279;-72
2021/04/09 14:25:42;;;;;;;;;;;;;;;14.82;33.66;100016.81;4883196;29;19934;-70
2021/04/09 14:28:10;;;;;;;;;;;;;;;14.92;33.04;100014.13;4883210;29;20386;-71
2021/04/09 14:30:39;;;;;;;;;;;;;;;14.89;33.26;100016.72;4883574;29;19963;-70
2021/04/09 14:33:08;;;;;;;;;;;;;;;14.85;33.71;100019.34;4866516;29;20309;-72
2021/04/09 14:35:36;;;;;;;;;;;;;;;14.69;33.63;100009.25;4883462;29;19957;-72
2021/04/09 14:38:03;;;;;;;;;;;;;;;14.52;33.51;100011.16;4883402;29;19975;-72
2021/04/09 14:40:31;;;;;;;;;;;;;;;14.41;33.79;99997.59;4866507;29;19928;-71
2021/04/09 14:42:59;;;;;;;;;;;;;;;14.30;33.83;100001.97;4882968;29;20370;-72
2021/04/09 14:45:26;;;;;;;;;;;;;;;14.17;33.72;99997.81;4882943;29;19928;-71
2021/04/09 14:47:54;;;;;;;;;;;;;;;14.07;34.16;99991.94;4883123;29;19984;-72
2021/04/09 14:50:23;;;;;;;;;;;;;;;14.04;33.93;99980.84;4882835;29;19951;-72
2021/04/09 14:52:53;;;;;;;;;;;;;;;13.99;33.34;99987.72;4866626;29;19989;-70
2021/04/09 14:55:21;;;;;;;;;;;;;;;14.03;32.91;99986.84;4882816;29;19933;-73
2021/04/09 14:57:49;;;;;;;;;;;;;;;14.05;33.03;99985.13;4882613;29;19931;-73
2021/04/09 15:00:18;;;;;;;;;;;;;;;14.04;33.09;99975.69;4882674;29;19951;-70
2021/04/09 15:02:48;;;;;;;;;;;;;;;14.00;32.63;99979.19;4882656;29;20010;-70
2021/04/09 15:05:16;;;;;;;;;;;;;;;14.07;32.68;99978.25;4882615;29;19929;-72
2021/04/09 15:07:45;;;;;;;;;;;;;;;14.26;32.76;99977.19;4882419;29;19976;-70
2021/04/09 15:10:14;;;;;;;;;;;;;;;14.43;32.87;99975.31;4882490;29;19928;-73
2021/04/09 15:12:42;;;;;;;;;;;;;;;14.49;33.16;99969.28;4882489;29;19928;-73
2021/04/09 15:15:10;;;;;;;;;;;;;;;14.48;32.40;99960.72;4881806;29;19928;-71
2021/04/09 15:17:38;;;;;;;;;;;;;;;14.49;31.89;99962.38;4882425;29;19984;-74
2021/04/09 15:20:07;;;;;;;;;;;;;;;14.52;32.20;99970.06;4882337;29;19974;-70
2021/04/09 15:22:35;;;;;;;;;;;;;;;14.55;32.39;99959.75;4882334;29;20354;-73
2021/04/09 15:25:05;;;;;;;;;;;;;;;14.57;32.51;99958.03;4882548;29;19935;-73
2021/04/09 15:27:33;;;;;;;;;;;;;;;14.48;31.86;99970.97;4882103;29;20357;-73
2021/04/09 15:30:00;;;;;;;;;;;;;;;14.34;31.24;99965.16;4882166;29;19928;-72
2021/04/09 15:32:28;;;;;;;;;;;;;;;14.20;32.09;99950.75;4882145;29;19928;-70
2021/04/09 15:34:56;;;;;;;;;;;;;;;14.07;32.36;99957.72;4882116;29;20327;-73
2021/04/09 15:37:24;;;;;;;;;;;;;;;13.95;32.51;99951.00;4882289;29;19927;-70
2021/04/09 15:39:52;;;;;;;;;;;;;;;13.86;32.10;99942.53;4881994;29;20409;-71
2021/04/09 15:42:21;;;;;;;;;;;;;;;13.78;32.18;99939.19;4881926;29;19935;-70
2021/04/09 15:44:48;;;;;;;;;;;;;;;13.71;32.57;99940.09;4881907;29;20050;-70
2021/04/09 15:47:17;;;;;;;;;;;;;;;13.67;32.50;99936.72;4882215;29;19927;-70
2021/04/09 15:49:45;;;;;;;;;;;;;;;13.63;32.70;99931.66;4881674;29;19935;-70
2021/04/09 15:52:17;;;;;;;;;;;;;;;13.58;32.76;99930.84;4881834;29;19928;-70
2021/04/09 15:54:45;;;;;;;;;;;;;;;13.52;32.97;99924.03;4881834;29;20015;-73
2021/04/09 15:57:13;;;;;;;;;;;;;;;13.48;33.43;99924.09;4881948;29;19934;-70
2021/04/09 15:59:42;;;;;;;;;;;;;;;13.42;33.57;99922.41;4881666;29;20018;-69
2021/04/09 16:02:09;;;;;;;;;;;;;;;13.39;33.61;99928.41;4881176;29;19939;-73
2021/04/09 16:04:37;;;;;;;;;;;;;;;13.37;33.48;99925.00;4865264;29;19935;-69
2021/04/09 16:07:06;;;;;;;;;;;;;;;13.37;33.24;99925.00;4881473;29;20004;-71
2021/04/09 16:09:34;;;;;;;;;;;;;;;13.38;33.43;99913.91;4881423;29;19928;-72
2021/04/09 16:12:02;;;;;;;;;;;;;;;13.38;34.05;99921.59;4881701;29;20335;-70
2021/04/09 16:14:32;;;;;;;;;;;;;;;13.37;34.00;99909.63;4881353;29;19959;-70
2021/04/09 16:17:02;;;;;;;;;;;;;;;13.38;33.90;99915.63;4881379;29;19935;-70
2021/04/09 16:19:50;;;;;;;;;;;;;;;13.36;33.78;99913.03;4824198;29;20032;-72
2021/04/09 16:22:22;;;;;;;;;;;;;;;13.34;33.86;99917.34;4824193;29;20406;-71
2021/04/09 16:24:50;;;;;;;;;;;;;;;13.30;33.92;99907.13;4824033;29;19935;-71
2021/04/09 16:27:18;;;;;;;;;;;;;;;13.23;34.16;99914.03;4823282;29;20527;-73
2021/04/09 16:29:46;;;;;;;;;;;;;;;13.17;34.29;99906.38;4823966;29;19929;-72
2021/04/09 16:32:17;;;;;;;;;;;;;;;13.08;34.36;99906.44;4824010;29;19928;-70
2021/04/09 16:34:50;;;;;;;;;;;;;;;13.03;34.10;99907.31;4824000;29;19929;-73
2021/04/09 16:37:18;;;;;;;;;;;;;;;12.97;34.21;99908.22;4808764;29;20315;-70
2021/04/09 16:39:47;;;;;;;;;;;;;;;12.90;34.37;99910.81;4823739;29;19928;-73
2021/04/09 16:42:18;;;;;;;;;;;;;;;12.85;34.04;99903.16;4823842;29;20044;-73
2021/04/09 16:44:45;;;;;;;;;;;;;;;12.78;34.06;99901.50;4823729;29;20399;-73
2021/04/09 16:47:17;;;;;;;;;;;;;;;12.69;34.52;99901.56;4808630;29;19929;-69
2021/04/09 16:49:45;;;;;;;;;;;;;;;12.62;34.62;99894.78;4823594;29;19935;-72
2021/04/09 16:52:13;;;;;;;;;;;;;;;12.58;34.83;99896.50;4823706;29;20376;-71
2021/04/09 16:54:40;;;;;;;;;;;;;;;12.55;34.31;99903.31;4823601;29;19951;-72
2021/04/09 16:57:11;;;;;;;;;;;;;;;12.50;34.46;99898.22;4848518;29;20019;-71
2021/04/09 16:59:39;;;;;;;;;;;;;;;12.48;34.07;99893.97;4880611;29;19992;-72
2021/04/09 17:02:09;;;;;;;;;;;;;;;12.45;34.40;99894.00;4880234;29;20022;-72
2021/04/09 17:04:38;;;;;;;;;;;;;;;12.41;34.34;99892.31;4880592;29;19932;-71
2021/04/09 17:07:17;;;;;;;;;;;;;;;12.36;34.24;99896.59;4880490;29;20275;-71
2021/04/09 17:10:15;;;;;;;;;;;;;;;12.28;34.77;99895.78;4864719;29;19928;-69
2021/04/09 17:12:43;;;;;;;;;;;;;;;12.22;34.65;99898.34;4880471;29;20022;-70
2021/04/09 17:15:12;;;;;;;;;;;;;;;12.15;35.00;99896.69;4880392;29;19959;-71
2021/04/09 17:17:42;;;;;;;;;;;;;;;12.15;34.85;99896.69;4880426;29;19932;-70
2021/04/09 17:20:13;;;;;;;;;;;;;;;12.14;34.75;99905.22;4880358;29;19928;-70
2021/04/09 17:22:44;;;;;;;;;;;;;;;12.08;34.64;99896.72;4880373;29;19928;-71
2021/04/09 17:25:13;;;;;;;;;;;;;;;11.98;35.25;99905.28;4880263;29;19928;-70
2021/04/09 17:27:41;;;;;;;;;;;;;;;11.91;35.59;99901.03;4880237;29;19935;-70
2021/04/09 17:30:09;;;;;;;;;;;;;;;11.87;35.66;99901.91;4880233;29;20022;-70
2021/04/09 17:32:39;;;;;;;;;;;;;;;11.81;36.07;99899.34;4880170;29;19928;-70
2021/04/09 17:35:07;;;;;;;;;;;;;;;11.77;35.64;99902.78;4880184;29;19928;-70
2021/04/09 17:37:36;;;;;;;;;;;;;;;11.73;35.85;99895.97;4879956;29;20042;-71
2021/04/09 17:40:04;;;;;;;;;;;;;;;11.69;36.16;99904.47;4880177;29;20295;-71
2021/04/09 17:42:32;;;;;;;;;;;;;;;11.66;36.16;99906.16;4880080;29;19935;-69
2021/04/09 17:45:00;;;;;;;;;;;;;;;11.61;36.12;99897.66;4880090;29;19928;-70
2021/04/09 17:47:28;;;;;;;;;;;;;;;11.60;36.30;99909.59;4880102;29;19988;-70
2021/04/09 17:49:56;;;;;;;;;;;;;;;11.54;36.80;99907.00;4880026;29;20022;-70
2021/04/09 17:52:24;;;;;;;;;;;;;;;11.45;37.08;99901.91;4880379;29;19999;-71
2021/04/09 17:54:53;;;;;;;;;;;;;;;11.38;36.75;99902.78;4880036;29;19928;-70
2021/04/09 17:57:21;;;;;;;;;;;;;;;11.28;37.64;99903.63;4879992;29;19928;-71
2021/04/09 17:59:52;;;;;;;;;;;;;;;11.21;37.20;99905.34;4880304;29;19927;-72
2021/04/09 18:02:20;;;;;;;;;;;;;;;11.19;37.46;99904.50;4879739;29;19928;-68
2021/04/09 18:04:48;;;;;;;;;;;;;;;11.18;37.58;99901.94;4880224;29;20370;-70
2021/04/09 18:07:16;;;;;;;;;;;;;;;11.09;37.98;99899.34;4863278;29;20026;-70
2021/04/09 18:09:44;;;;;;;;;;;;;;;11.05;37.74;99905.31;4879855;29;19935;-71
2021/04/09 18:12:13;;;;;;;;;;;;;;;11.02;37.79;99895.09;4863519;29;19976;-69
2021/04/09 18:14:41;;;;;;;;;;;;;;;10.99;37.82;99905.34;4879938;29;19935;-71
2021/04/09 18:17:09;;;;;;;;;;;;;;;10.95;38.54;99903.59;4863511;29;19980;-69
2021/04/09 18:19:37;;;;;;;;;;;;;;;10.90;38.58;99902.75;4880179;29;19959;-68
2021/04/09 18:22:08;;;;;;;;;;;;;;;10.88;38.67;99907.00;4863676;29;19928;-68
2021/04/09 18:24:36;;;;;;;;;;;;;;;10.83;38.70;99903.59;4880626;29;20005;-69
2021/04/09 18:27:07;;;;;;;;;;;;;;;10.78;38.45;99906.13;4879787;29;19928;-71
2021/04/09 18:29:38;;;;;;;;;;;;;;;10.75;38.74;99906.97;4879714;29;19932;-71
2021/04/09 18:32:07;;;;;;;;;;;;;;;10.70;38.25;99907.84;4879851;29;20290;-72
2021/04/09 18:34:35;;;;;;;;;;;;;;;10.69;39.25;99901.88;4863126;29;20031;-68
2021/04/09 18:37:06;;;;;;;;;;;;;;;10.70;39.21;99903.56;4847959;29;19928;-68
2021/04/09 18:39:35;;;;;;;;;;;;;;;10.76;38.85;99905.28;4879589;29;19935;-68
2021/04/09 18:42:04;;;;;;;;;;;;;;;10.80;38.94;99898.50;4879635;29;19963;-70
2021/04/09 18:44:31;;;;;;;;;;;;;;;10.83;39.13;99895.94;4879612;29;20023;-71
2021/04/09 18:47:01;;;;;;;;;;;;;;;10.86;38.94;99893.38;4863289;29;19932;-69
2021/04/09 18:49:28;;;;;;;;;;;;;;;10.85;38.78;99896.78;4879768;29;19928;-70
2021/04/09 18:51:59;;;;;;;;;;;;;;;10.82;39.63;99892.56;4882933;29;20297;-70
2021/04/09 18:54:27;;;;;;;;;;;;;;;10.85;38.85;99896.78;4866236;29;19931;-71
2021/04/09 18:56:55;;;;;;;;;;;;;;;10.89;39.08;99898.50;4882761;29;19955;-69
2021/04/09 18:59:23;;;;;;;;;;;;;;;10.96;38.78;99900.22;4883009;29;19928;-70
2021/04/09 19:01:52;;;;;;;;;;;;;;;10.97;39.08;99896.78;4882643;29;20018;-71
2021/04/09 19:04:21;;;;;;;;;;;;;;;10.93;39.11;99895.97;4882655;29;19939;-71
2021/04/09 19:06:49;;;;;;;;;;;;;;;10.93;38.96;99895.09;4882610;29;20031;-70
2021/04/09 19:09:22;;;;;;;;;;;;;;;10.97;39.20;99886.59;4882709;29;20026;-71
2021/04/09 19:11:50;;;;;;;;;;;;;;;11.01;39.21;99883.19;4882512;29;19931;-71
2021/04/09 19:14:28;;;;;;;;;;;;;;;11.05;39.41;99877.22;4882573;29;19928;-68
2021/04/09 19:16:59;;;;;;;;;;;;;;;11.08;38.89;99875.53;4882812;29;20363;-68
2021/04/09 19:19:31;;;;;;;;;;;;;;;11.05;38.92;99878.09;4850129;29;19927;-72
2021/04/09 19:21:59;;;;;;;;;;;;;;;11.00;39.40;99877.22;4882410;29;19950;-70
2021/04/09 19:24:28;;;;;;;;;;;;;;;10.96;39.56;99874.69;4882363;29;19976;-68
2021/04/09 19:26:56;;;;;;;;;;;;;;;10.92;40.10;99873.00;4882343;29;19928;-68
2021/04/09 19:29:27;;;;;;;;;;;;;;;10.96;39.49;99874.69;4882336;29;19928;-72
2021/04/09 19:31:55;;;;;;;;;;;;;;;10.94;39.85;99867.00;4882229;29;20302;-68
2021/04/09 19:34:22;;;;;;;;;;;;;;;10.92;40.39;99873.00;4882102;29;20027;-70
2021/04/09 19:36:51;;;;;;;;;;;;;;;10.88;40.17;99877.22;4882150;29;19967;-69
2021/04/09 19:39:19;;;;;;;;;;;;;;;10.80;40.45;99872.97;4882106;29;19935;-69
2021/04/09 19:41:50;;;;;;;;;;;;;;;10.76;40.46;99864.44;4882094;29;19928;-72
2021/04/09 19:44:18;;;;;;;;;;;;;;;10.66;41.01;99868.69;4882384;29;19967;-68
2021/04/09 19:46:46;;;;;;;;;;;;;;;10.64;41.39;99864.41;4881949;29;19980;-68
2021/04/09 19:49:15;;;;;;;;;;;;;;;10.58;41.91;99866.97;4881963;29;19928;-68
2021/04/09 19:51:46;;;;;;;;;;;;;;;10.52;41.52;99865.25;4881901;29;19935;-68
2021/04/09 19:54:15;;;;;;;;;;;;;;;10.41;41.66;99866.06;4881775;29;19956;-70